Terminal Aerodrome Forecast
Issued by NWS

Home | Current Version | Previous Version | Text Only | Print | Product List | Glossary On
Versions: 1 2 3 4 5 6 7 8 9 10 11 12 13 14 15 16 17 18 19 20 21
000
FTUS43 KIND 012300
TAFHUF
TAF
KHUF 012320Z 0200/0224 29006KT 5SM -SHRA BR OVC006
     FM020300 30011G19KT 4SM -SHSN BR OVC005
     FM020500 33019G28KT P6SM OVC009
     FM021100 33014G20KT P6SM OVC015
     FM021800 30009KT P6SM SCT030=

USA.gov is the U.S. government's official web portal to all federal, state and local government web resources and services.